| time (UTC) | temp F | wind direction | speed knots | gust knots | rain 1hr in | rain 24hr in | rain mn in | humidity % | barometer mb |
| 20260503194449 | 79 | 194 | 2.6 | 4.3 | 0.00 | 0.00 | 0.00 | 47 | 1020.3 |
| 20260503193944 | 78 | 196 | 2.6 | 3.5 | 0.00 | 0.00 | 0.00 | 48 | 1020.6 |
| 20260503193439 | 77 | 147 | 0.0 | 2.6 | 0.00 | 0.00 | 0.00 | 49 | 1020.8 |
| 20260503192935 | 78 | 245 | 0.0 | 2.6 | 0.00 | 0.00 | 0.00 | 47 | 1020.6 |
| 20260503192432 | 76 | 251 | 0.0 | 2.6 | 0.00 | 0.00 | 0.00 | 48 | 1020.7 |
| 20260503191927 | 76 | 57 | 0.0 | 4.3 | 0.00 | 0.00 | 0.00 | 48 | 1020.7 |
| 20260503191425 | 77 | 3 | 0.9 | 2.6 | 0.00 | 0.00 | 0.00 | 48 | 1020.7 |
| 20260503190921 | 76 | 69 | 2.6 | 2.6 | 0.00 | 0.00 | 0.00 | 49 | 1020.9 |
| 20260503190419 | 76 | 145 | 0.9 | 2.6 | 0.00 | 0.00 | 0.00 | 48 | 1021.0 |
| 20260503185916 | 76 | 92 | 1.7 | 4.3 | 0.00 | 0.00 | 0.00 | 49 | 1021.0 |
| 20260503185412 | 75 | 86 | 0.9 | 2.6 | 0.00 | 0.00 | 0.00 | 50 | 1021.1 |
| 20260503184911 | 75 | 30 | 2.6 | 2.6 | 0.00 | 0.00 | 0.00 | 52 | 1020.9 |
| 20260503184408 | 75 | 126 | 1.7 | 4.3 | 0.00 | 0.00 | 0.00 | 51 | 1021.0 |
| 20260503183905 | 76 | 22 | 1.7 | 1.7 | 0.00 | 0.00 | 0.00 | 49 | 1021.0 |
| 20260503183401 | 76 | 142 | 3.5 | 4.3 | 0.00 | 0.00 | 0.00 | 50 | 1021.1 |
| 20260503182858 | 75 | 287 | 0.0 | 0.9 | 0.00 | 0.00 | 0.00 | 51 | 1021.1 |
| 20260503182357 | 75 | 38 | 1.7 | 4.3 | 0.00 | 0.00 | 0.00 | 53 | 1021.2 |
| 20260503181853 | 75 | 87 | 2.6 | 3.5 | 0.00 | 0.00 | 0.00 | 52 | 1021.2 |
| 20260503181351 | 73 | 158 | 2.6 | 3.5 | 0.00 | 0.00 | 0.00 | 55 | 1021.3 |
| 20260503180847 | 75 | 3 | 0.0 | 2.6 | 0.00 | 0.00 | 0.00 | 53 | 1021.2 |
| 20260503180345 | 74 | 71 | 2.6 | 4.3 | 0.00 | 0.00 | 0.00 | 56 | 1021.1 |
| 20260503175842 | 73 | 83 | 2.6 | 3.5 | 0.00 | 0.00 | 0.00 | 55 | 1021.3 |
| 20260503175340 | 72 | 103 | 2.6 | 2.6 | 0.00 | 0.00 | 0.00 | 56 | 1021.4 |
| 20260503174835 | 71 | 27 | 2.6 | 5.2 | 0.00 | 0.00 | 0.00 | 60 | 1021.4 |
| 20260503174333 | 72 | 230 | 0.9 | 3.5 | 0.00 | 0.00 | 0.00 | 56 | 1021.7 |
| 20260503173828 | 71 | 260 | 1.7 | 3.5 | 0.00 | 0.00 | 0.00 | 60 | 1021.2 |
| 20260503173325 | 71 | 29 | 0.9 | 1.7 | 0.00 | 0.00 | 0.00 | 59 | 1021.4 |
| 20260503172821 | 71 | 31 | 2.6 | 4.3 | 0.00 | 0.00 | 0.00 | 59 | 1021.6 |
| 20260503172319 | 72 | 82 | 2.6 | 2.6 | 0.00 | 0.00 | 0.00 | 59 | 1021.6 |
| 20260503171815 | 71 | 110 | 0.9 | 1.7 | 0.00 | 0.00 | 0.00 | 57 | 1021.7 |
| 20260503171312 | 72 | 112 | 2.6 | 3.5 | 0.00 | 0.00 | 0.00 | 58 | 1021.6 |
| 20260503170809 | 70 | 0 | 0.0 | 0.9 | 0.00 | 0.00 | 0.00 | 60 | 1021.7 |
| 20260503170306 | 70 | 79 | 2.6 | 2.6 | 0.00 | 0.00 | 0.00 | 59 | 1021.7 |
| 20260503150658 | 57 | 110 | 0.0 | 4.3 | 0.00 | 0.00 | 0.00 | 92 | 1022.1 |
| 20260503150154 | 56 | 58 | 1.7 | 3.5 | 0.00 | 0.00 | 0.00 | 93 | 1022.0 |
| 20260503140119 | 52 | 67 | 0.9 | 2.6 | 0.00 | 0.00 | 0.00 | 98 | 1021.9 |
| 20260503131048 | 51 | 88 | 1.7 | 1.7 | 0.00 | 0.00 | 0.00 | 98 | 1022.0 |
| 20260503130545 | 51 | 129 | 1.7 | 1.7 | 0.00 | 0.00 | 0.00 | 98 | 1021.9 |
| 20260503110435 | 51 | 264 | 0.9 | 0.9 | 0.00 | 0.00 | 0.00 | 97 | 1022.0 |
| 20260503090321 | 53 | 7 | 0.0 | 0.9 | 0.00 | 0.00 | 0.00 | 96 | 1022.4 |
| 20260503081248 | 53 | 229 | 0.0 | 1.7 | 0.00 | 0.00 | 0.00 | 94 | 1022.4 |
| 20260503080744 | 53 | 89 | 0.0 | 1.7 | 0.00 | 0.00 | 0.00 | 93 | 1022.7 |
| 20260503080242 | 53 | 202 | 0.0 | 1.7 | 0.00 | 0.00 | 0.00 | 93 | 1022.5 |
| 20260503072718 | 54 | 272 | 1.7 | 2.6 | 0.00 | 0.00 | 0.00 | 92 | 1022.3 |
| 20260503072215 | 54 | 107 | 0.0 | 1.7 | 0.00 | 0.00 | 0.00 | 92 | 1022.2 |
| 20260503071712 | 54 | 327 | 0.0 | 1.7 | 0.00 | 0.00 | 0.00 | 92 | 1022.4 |
| 20260503071209 | 54 | 304 | 0.0 | 1.7 | 0.00 | 0.00 | 0.00 | 91 | 1022.1 |
| 20260503070705 | 54 | 196 | 0.0 | 0.9 | 0.00 | 0.00 | 0.00 | 91 | 1022.3 |
| 20260503070204 | 54 | 63 | 0.9 | 1.7 | 0.00 | 0.00 | 0.00 | 90 | 1022.1 |
| 20260503060127 | 56 | 243 | 0.0 | 1.7 | 0.00 | 0.00 | 0.00 | 87 | 1022.1 |
| 20260503055119 | 56 | 292 | 1.7 | 1.7 | 0.00 | 0.00 | 0.00 | 86 | 1022.1 |
| 20260503054615 | 56 | 285 | 0.9 | 1.7 | 0.00 | 0.00 | 0.00 | 86 | 1022.2 |
| 20260503054112 | 56 | 261 | 0.0 | 1.7 | 0.00 | 0.00 | 0.00 | 86 | 1022.1 |
| 20260503053610 | 56 | 257 | 0.9 | 0.9 | 0.00 | 0.00 | 0.00 | 86 | 1022.4 |
| 20260503053108 | 57 | 292 | 0.0 | 1.7 | 0.00 | 0.00 | 0.00 | 85 | 1022.2 |
| 20260503052604 | 57 | 341 | 0.9 | 0.9 | 0.00 | 0.00 | 0.00 | 85 | 1022.2 |
| 20260503052101 | 57 | 253 | 0.9 | 1.7 | 0.00 | 0.00 | 0.00 | 84 | 1022.1 |
| 20260503051556 | 57 | 269 | 0.0 | 1.7 | 0.00 | 0.00 | 0.00 | 83 | 1022.1 |
| 20260503051054 | 57 | 243 | 0.9 | 1.7 | 0.00 | 0.00 | 0.00 | 83 | 1022.0 |
| 20260503050549 | 58 | 263 | 0.0 | 1.7 | 0.00 | 0.00 | 0.00 | 82 | 1022.1 |
| 20260503050047 | 58 | 214 | 0.9 | 1.7 | 0.00 | 0.00 | 0.00 | 82 | 1022.1 |
| 20260503045544 | 58 | 286 | 0.9 | 1.7 | 0.00 | 0.00 | 0.00 | 81 | 1022.2 |
| 20260503045041 | 58 | 277 | 1.7 | 1.7 | 0.00 | 0.00 | 0.00 | 80 | 1022.3 |
| 20260503044538 | 58 | 269 | 0.0 | 0.9 | 0.00 | 0.00 | 0.00 | 80 | 1021.8 |
| 20260503044036 | 59 | 89 | 0.0 | 0.9 | 0.00 | 0.00 | 0.00 | 78 | 1022.0 |
| 20260503043532 | 59 | 253 | 0.0 | 0.9 | 0.00 | 0.00 | 0.00 | 78 | 1022.1 |
| 20260503043028 | 59 | 304 | 0.0 | 1.7 | 0.00 | 0.00 | 0.00 | 77 | 1021.7 |
| 20260503042526 | 60 | 31 | 0.0 | 0.9 | 0.00 | 0.00 | 0.00 | 77 | 1021.5 |
| 20260503042021 | 60 | 247 | 0.9 | 1.7 | 0.00 | 0.00 | 0.00 | 75 | 1021.8 |
| 20260503041519 | 60 | 38 | 0.0 | 1.7 | 0.00 | 0.00 | 0.00 | 75 | 1021.7 |
| 20260503041016 | 60 | 263 | 0.9 | 1.7 | 0.00 | 0.00 | 0.00 | 73 | 1021.3 |
| 20260503040514 | 61 | 233 | 0.9 | 1.7 | 0.00 | 0.00 | 0.00 | 73 | 1021.6 |
| 20260503040011 | 61 | 223 | 0.9 | 0.9 | 0.00 | 0.00 | 0.00 | 72 | 1021.4 |
| 20260503035507 | 61 | 41 | 0.0 | 0.9 | 0.00 | 0.00 | 0.00 | 71 | 1021.1 |
| 20260503035005 | 62 | 74 | 0.0 | 1.7 | 0.00 | 0.00 | 0.00 | 70 | 1021.5 |
| 20260503034502 | 62 | 58 | 0.9 | 1.7 | 0.00 | 0.00 | 0.00 | 70 | 1021.3 |
| 20260503033959 | 63 | 132 | 0.0 | 0.9 | 0.00 | 0.00 | 0.00 | 68 | 1021.2 |
| 20260503033456 | 63 | 115 | 0.0 | 1.7 | 0.00 | 0.00 | 0.00 | 65 | 1021.2 |
| 20260503032954 | 64 | 78 | 0.9 | 1.7 | 0.00 | 0.00 | 0.00 | 63 | 1021.0 |
| 20260503032452 | 64 | 138 | 1.7 | 1.7 | 0.00 | 0.00 | 0.00 | 62 | 1020.8 |
| 20260503031950 | 65 | 124 | 0.9 | 1.7 | 0.00 | 0.00 | 0.00 | 61 | 1020.9 |
| 20260503031448 | 65 | 121 | 1.7 | 1.7 | 0.00 | 0.00 | 0.00 | 60 | 1021.0 |
| 20260503030944 | 66 | 72 | 0.9 | 1.7 | 0.00 | 0.00 | 0.00 | 58 | 1020.9 |
| 20260503030440 | 67 | 113 | 0.0 | 0.9 | 0.00 | 0.00 | 0.00 | 56 | 1020.7 |
| 20260503025937 | 67 | 72 | 0.9 | 1.7 | 0.00 | 0.00 | 0.00 | 55 | 1020.6 |
| 20260503025434 | 67 | 147 | 1.7 | 1.7 | 0.00 | 0.00 | 0.00 | 56 | 1020.6 |
| 20260503024932 | 67 | 171 | 0.0 | 1.7 | 0.00 | 0.00 | 0.00 | 57 | 1020.7 |
| 20260503024428 | 68 | 138 | 1.7 | 2.6 | 0.00 | 0.00 | 0.00 | 56 | 1020.3 |
| 20260503023925 | 68 | 227 | 0.0 | 0.9 | 0.00 | 0.00 | 0.00 | 54 | 1020.6 |
| 20260503023422 | 69 | 165 | 0.9 | 1.7 | 0.00 | 0.00 | 0.00 | 55 | 1020.8 |
| 20260503022919 | 69 | 143 | 0.0 | 2.6 | 0.00 | 0.00 | 0.00 | 55 | 1020.6 |
| 20260503022414 | 69 | 89 | 0.0 | 1.7 | 0.00 | 0.00 | 0.00 | 55 | 1020.5 |
| 20260503021910 | 69 | 31 | 0.0 | 2.6 | 0.00 | 0.00 | 0.00 | 56 | 1020.5 |
| 20260503021406 | 70 | 20 | 0.0 | 1.7 | 0.00 | 0.00 | 0.00 | 58 | 1020.6 |
| 20260503020904 | 70 | 329 | 0.9 | 1.7 | 0.00 | 0.00 | 0.00 | 52 | 1020.3 |
| 20260503020402 | 70 | 233 | 1.7 | 1.7 | 0.00 | 0.00 | 0.00 | 53 | 1020.5 |
| 20260503015857 | 71 | 46 | 0.9 | 1.7 | 0.00 | 0.00 | 0.00 | 54 | 1020.5 |
| 20260503015355 | 71 | 253 | 2.6 | 2.6 | 0.00 | 0.00 | 0.00 | 51 | 1020.7 |
| 20260503014850 | 71 | 269 | 0.0 | 3.5 | 0.00 | 0.00 | 0.00 | 52 | 1020.7 |
| 20260503014348 | 71 | 180 | 1.7 | 1.7 | 0.00 | 0.00 | 0.00 | 54 | 1020.5 |
| 20260503013846 | 71 | 180 | 1.7 | 2.6 | 0.00 | 0.00 | 0.00 | 53 | 1020.7 |
| 20260503013342 | 71 | 196 | 0.9 | 4.3 | 0.00 | 0.00 | 0.00 | 53 | 1020.8 |
| 20260503012839 | 72 | 261 | 0.9 | 2.6 | 0.00 | 0.00 | 0.00 | 53 | 1020.7 |
| 20260503012337 | 72 | 251 | 1.7 | 2.6 | 0.00 | 0.00 | 0.00 | 53 | 1020.6 |
| 20260503011834 | 72 | 245 | 2.6 | 4.3 | 0.00 | 0.00 | 0.00 | 52 | 1020.7 |
| 20260503011331 | 72 | 288 | 0.9 | 2.6 | 0.00 | 0.00 | 0.00 | 53 | 1020.7 |
| 20260503010827 | 73 | 353 | 3.5 | 6.1 | 0.00 | 0.00 | 0.00 | 53 | 1020.6 |
| 20260503010325 | 73 | 345 | 0.0 | 4.3 | 0.00 | 0.00 | 0.00 | 53 | 1020.8 |
| 20260503005821 | 74 | 331 | 0.0 | 2.6 | 0.00 | 0.00 | 0.00 | 51 | 1020.7 |
| 20260503005319 | 75 | 272 | 3.5 | 4.3 | 0.00 | 0.00 | 0.00 | 49 | 1020.8 |
| 20260503004815 | 75 | 259 | 2.6 | 4.3 | 0.00 | 0.00 | 0.00 | 49 | 1020.8 |
| 20260503004313 | 75 | 13 | 1.7 | 2.6 | 0.00 | 0.00 | 0.00 | 51 | 1020.8 |
| 20260503003810 | 74 | 71 | 0.9 | 4.3 | 0.00 | 0.00 | 0.00 | 52 | 1020.7 |
| 20260503003307 | 74 | 339 | 2.6 | 6.1 | 0.00 | 0.00 | 0.00 | 52 | 1021.0 |
| 20260503002804 | 74 | 266 | 6.1 | 6.1 | 0.00 | 0.00 | 0.00 | 52 | 1020.8 |
| 20260503002300 | 74 | 338 | 2.6 | 4.3 | 0.00 | 0.00 | 0.00 | 53 | 1020.7 |
| 20260503001756 | 74 | 291 | 2.6 | 4.3 | 0.00 | 0.00 | 0.00 | 52 | 1020.7 |
| 20260503001253 | 75 | 299 | 1.7 | 7.0 | 0.00 | 0.00 | 0.00 | 52 | 1020.9 |
| 20260503000751 | 75 | 271 | 4.3 | 4.3 | 0.00 | 0.00 | 0.00 | 54 | 1020.7 |
| 20260503000248 | 75 | 269 | 0.0 | 2.6 | 0.00 | 0.00 | 0.00 | 54 | 1020.8 |
| 20260502235745 | 75 | 115 | 1.7 | 3.5 | 0.00 | 0.00 | 0.00 | 54 | 1020.9 |
| 20260502235243 | 75 | 267 | 0.0 | 1.7 | 0.00 | 0.00 | 0.00 | 55 | 1020.9 |
| 20260502234739 | 75 | 264 | 2.6 | 4.3 | 0.00 | 0.00 | 0.00 | 54 | 1021.2 |
| 20260502234236 | 76 | 293 | 0.9 | 3.5 | 0.00 | 0.00 | 0.00 | 53 | 1021.1 |
| 20260502233732 | 77 | 76 | 0.0 | 2.6 | 0.00 | 0.00 | 0.00 | 52 | 1021.2 |
| 20260502233229 | 77 | 66 | 0.0 | 1.7 | 0.00 | 0.00 | 0.00 | 53 | 1021.4 |
| 20260502232725 | 77 | 0 | 0.9 | 7.0 | 0.00 | 0.00 | 0.00 | 54 | 1021.5 |
| 20260502232222 | 77 | 86 | 1.7 | 1.7 | 0.00 | 0.00 | 0.00 | 54 | 1021.2 |
| 20260502231719 | 74 | 45 | 1.7 | 2.6 | 0.00 | 0.00 | 0.00 | 58 | 1021.2 |
| 20260502231217 | 76 | 269 | 0.9 | 4.3 | 0.00 | 0.00 | 0.00 | 56 | 1021.4 |
| 20260502230715 | 76 | 38 | 0.9 | 1.7 | 0.00 | 0.00 | 0.00 | 55 | 1021.4 |
| 20260502230213 | 76 | 16 | 1.7 | 1.7 | 0.00 | 0.00 | 0.00 | 54 | 1021.4 |
| 20260502225708 | 77 | 277 | 0.9 | 2.6 | 0.00 | 0.00 | 0.00 | 54 | 1021.6 |
| 20260502225206 | 78 | 162 | 0.0 | 1.7 | 0.00 | 0.00 | 0.00 | 53 | 1021.6 |
| 20260502224702 | 75 | 89 | 0.0 | 1.7 | 0.00 | 0.00 | 0.00 | 55 | 1021.5 |
| 20260502224159 | 76 | 186 | 1.7 | 2.6 | 0.00 | 0.00 | 0.00 | 56 | 1021.8 |
| 20260502223657 | 76 | 191 | 1.7 | 3.5 | 0.00 | 0.00 | 0.00 | 55 | 1021.9 |
| 20260502223155 | 75 | 63 | 2.6 | 4.3 | 0.00 | 0.00 | 0.00 | 56 | 1021.8 |
| 20260502222652 | 76 | 237 | 3.5 | 3.5 | 0.00 | 0.00 | 0.00 | 55 | 1021.9 |
| 20260502222148 | 76 | 44 | 0.0 | 1.7 | 0.00 | 0.00 | 0.00 | 55 | 1022.0 |
| 20260502221644 | 75 | 139 | 0.0 | 1.7 | 0.00 | 0.00 | 0.00 | 56 | 1022.1 |
| 20260502221141 | 75 | 185 | 1.7 | 1.7 | 0.00 | 0.00 | 0.00 | 56 | 1022.2 |
| 20260502220637 | 75 | 5 | 0.0 | 2.6 | 0.00 | 0.00 | 0.00 | 58 | 1022.3 |
| 20260502220134 | 73 | 16 | 1.7 | 2.6 | 0.00 | 0.00 | 0.00 | 60 | 1022.3 |
| 20260502215631 | 74 | 43 | 3.5 | 3.5 | 0.00 | 0.00 | 0.00 | 58 | 1022.3 |
| 20260502215128 | 75 | 245 | 2.6 | 2.6 | 0.00 | 0.00 | 0.00 | 56 | 1022.3 |
| 20260502214625 | 74 | 223 | 0.9 | 2.6 | 0.00 | 0.00 | 0.00 | 58 | 1022.2 |
| 20260502214122 | 73 | 351 | 0.9 | 2.6 | 0.00 | 0.00 | 0.00 | 59 | 1022.2 |
| 20260502213620 | 73 | 128 | 0.9 | 4.3 | 0.00 | 0.00 | 0.00 | 61 | 1022.6 |
| 20260502213116 | 73 | 69 | 0.0 | 3.5 | 0.00 | 0.00 | 0.00 | 62 | 1022.5 |
| 20260502212616 | 73 | 268 | 2.6 | 4.3 | 0.00 | 0.00 | 0.00 | 60 | 1022.4 |
| 20260502212113 | 75 | 21 | 0.9 | 2.6 | 0.00 | 0.00 | 0.00 | 58 | 1022.5 |
| 20260502211608 | 75 | 215 | 2.6 | 3.5 | 0.00 | 0.00 | 0.00 | 58 | 1022.5 |
| 20260502211106 | 74 | 343 | 1.7 | 3.5 | 0.00 | 0.00 | 0.00 | 60 | 1022.6 |
| 20260502210603 | 75 | 142 | 3.5 | 4.3 | 0.00 | 0.00 | 0.00 | 58 | 1022.5 |
| 20260502210100 | 73 | 159 | 0.9 | 2.6 | 0.00 | 0.00 | 0.00 | 59 | 1022.6 |
| 20260502205556 | 74 | 135 | 0.0 | 2.6 | 0.00 | 0.00 | 0.00 | 59 | 1022.7 |
| 20260502205054 | 72 | 339 | 1.7 | 4.3 | 0.00 | 0.00 | 0.00 | 61 | 1022.7 |
| 20260502204550 | 72 | 110 | 2.6 | 3.5 | 0.00 | 0.00 | 0.00 | 60 | 1022.7 |
| 20260502204048 | 72 | 318 | 1.7 | 2.6 | 0.00 | 0.00 | 0.00 | 62 | 1022.6 |
| 20260502203545 | 71 | 319 | 0.9 | 3.5 | 0.00 | 0.00 | 0.00 | 62 | 1023.0 |
| 20260502203042 | 73 | 336 | 2.6 | 3.5 | 0.00 | 0.00 | 0.00 | 60 | 1022.9 |
| 20260502202538 | 73 | 192 | 3.5 | 3.5 | 0.00 | 0.00 | 0.00 | 60 | 1023.2 |
| 20260502202036 | 71 | 219 | 2.6 | 4.3 | 0.00 | 0.00 | 0.00 | 63 | 1023.2 |
| 20260502201532 | 72 | 62 | 2.6 | 3.5 | 0.00 | 0.00 | 0.00 | 61 | 1023.1 |
| 20260502201029 | 71 | 163 | 1.7 | 2.6 | 0.00 | 0.00 | 0.00 | 62 | 1023.3 |
| 20260502200524 | 70 | 116 | 1.7 | 2.6 | 0.00 | 0.00 | 0.00 | 61 | 1023.3 |
| 20260502200022 | 71 | 26 | 1.7 | 1.7 | 0.00 | 0.00 | 0.00 | 62 | 1023.2 |
| 20260502195520 | 71 | 26 | 0.9 | 1.7 | 0.00 | 0.00 | 0.00 | 60 | 1023.6 |
| 20260502195015 | 69 | 83 | 0.9 | 1.7 | 0.00 | 0.00 | 0.00 | 64 | 1023.3 |